Time;durP1;ratioP1;P1;durP2;ratioP2;P2;SDS_P1;SDS_P2;PMS_P1;PMS_P2;Temp;Humidity;BMP_temperature;BMP_pressure;BME280_temperature;BME280_humidity;BME280_pressure;Samples;Min_cycle;Max_cycle;Signal;HPM_P1;HPM_P2
2022/05/06 00:00:39;;;;;;;;;;;;;;;2.65;56.63;96534.22;6355931;27;19923;-63
2022/05/06 00:03:43;;;;;;;;;;;;;;;2.61;56.58;96534.44;6374876;27;19923;-63
2022/05/06 00:06:44;;;;;;;;;;;;;;;2.55;56.99;96543.31;6355610;27;19923;-64
2022/05/06 00:09:47;;;;;;;;;;;;;;;2.51;57.30;96546.91;6373928;27;19930;-64
2022/05/06 00:12:51;;;;;;;;;;;;;;;2.49;57.09;96564.28;6373573;27;19923;-63
2022/05/06 00:15:52;;;;;;;;;;;;;;;2.43;57.75;96572.31;6374105;27;19937;-65
2022/05/06 00:18:53;;;;;;;;;;;;;;;2.33;57.91;96569.22;6373623;27;19924;-64
2022/05/06 00:22:00;;;;;;;;;;;;;;;2.24;57.81;96580.78;6374492;27;19923;-64
2022/05/06 00:25:03;;;;;;;;;;;;;;;2.23;57.74;96589.47;6374325;27;19924;-64
2022/05/06 00:28:04;;;;;;;;;;;;;;;2.31;58.08;96585.75;6373674;27;19930;-64
2022/05/06 00:31:06;;;;;;;;;;;;;;;2.20;57.88;96591.34;6373301;27;19923;-63
2022/05/06 00:34:12;;;;;;;;;;;;;;;2.17;58.28;96594.88;6374263;27;19924;-64
2022/05/06 00:37:13;;;;;;;;;;;;;;;2.14;58.35;96604.53;6373525;27;19923;-63
2022/05/06 00:40:16;;;;;;;;;;;;;;;2.28;58.02;96611.84;6374082;27;19977;-64
2022/05/06 00:43:19;;;;;;;;;;;;;;;2.39;57.11;96614.88;6373466;27;19923;-64
2022/05/06 00:46:23;;;;;;;;;;;;;;;2.41;56.48;96620.88;6373165;27;19923;-64
2022/05/06 00:49:24;;;;;;;;;;;;;;;2.44;56.47;96639.78;6373162;27;20099;-64
2022/05/06 00:52:28;;;;;;;;;;;;;;;2.69;55.34;96634.53;6373919;27;19923;-64
2022/05/06 00:55:33;;;;;;;;;;;;;;;2.80;54.95;96630.66;6372657;27;19924;-64
2022/05/06 00:58:37;;;;;;;;;;;;;;;2.99;53.72;96631.66;6372648;27;19930;-64
2022/05/06 01:01:38;;;;;;;;;;;;;;;2.99;53.53;96646.41;6373552;27;19923;-63
2022/05/06 01:04:39;;;;;;;;;;;;;;;3.13;52.97;96644.13;6372761;27;19930;-64
2022/05/06 01:07:45;;;;;;;;;;;;;;;3.02;53.09;96647.13;6373283;27;19923;-64
2022/05/06 01:10:47;;;;;;;;;;;;;;;2.99;53.13;96657.66;6372228;27;19942;-64
2022/05/06 01:13:53;;;;;;;;;;;;;;;3.06;53.17;96664.31;6372516;27;20380;-64
2022/05/06 01:16:57;;;;;;;;;;;;;;;3.24;52.42;96669.72;6373156;27;20015;-64
2022/05/06 01:19:58;;;;;;;;;;;;;;;3.36;52.00;96682.22;6372636;27;20428;-64
2022/05/06 01:22:59;;;;;;;;;;;;;;;3.48;51.72;96676.56;6371950;27;19929;-64
2022/05/06 01:26:03;;;;;;;;;;;;;;;3.55;51.28;96687.56;6372735;27;19937;-63
2022/05/06 01:29:05;;;;;;;;;;;;;;;3.37;51.54;96704.75;6371660;27;19923;-65
2022/05/06 01:32:06;;;;;;;;;;;;;;;3.42;51.51;96696.75;6372652;27;19923;-64
2022/05/06 01:35:08;;;;;;;;;;;;;;;3.41;51.40;96705.47;6371829;27;20308;-63
2022/05/06 01:38:09;;;;;;;;;;;;;;;3.30;51.70;96703.28;6372775;27;20396;-64
2022/05/06 01:41:15;;;;;;;;;;;;;;;3.43;51.15;96720.09;6372003;27;20285;-64
2022/05/06 01:44:18;;;;;;;;;;;;;;;3.50;50.73;96729.34;6372037;27;19923;-64
2022/05/06 01:47:31;;;;;;;;;;;;;;;3.54;50.43;96727.50;6372438;27;19923;-64
2022/05/06 01:50:34;;;;;;;;;;;;;;;3.44;50.73;96734.81;6371790;27;19969;-63
2022/05/06 01:53:35;;;;;;;;;;;;;;;3.58;50.22;96739.47;6370927;27;19923;-64
2022/05/06 01:56:41;;;;;;;;;;;;;;;3.66;49.67;96736.56;6372453;27;20396;-64
2022/05/06 01:59:48;;;;;;;;;;;;;;;3.74;49.27;96734.53;6371607;27;19920;-65
2022/05/06 02:02:49;;;;;;;;;;;;;;;3.79;48.68;96753.38;6371247;27;19930;-64
2022/05/06 02:05:53;;;;;;;;;;;;;;;3.83;48.23;96761.00;6371077;27;20316;-63
2022/05/06 02:08:56;;;;;;;;;;;;;;;4.05;47.23;96755.78;6372100;27;19919;-64
2022/05/06 02:12:02;;;;;;;;;;;;;;;4.00;46.91;96778.56;6371948;27;20445;-64
2022/05/06 02:15:06;;;;;;;;;;;;;;;3.95;47.39;96764.03;6371326;27;19923;-64
2022/05/06 02:18:09;;;;;;;;;;;;;;;3.84;47.83;96772.25;6370689;27;19924;-64
2022/05/06 02:21:15;;;;;;;;;;;;;;;3.94;47.39;96768.41;6371672;27;20023;-64
2022/05/06 02:24:16;;;;;;;;;;;;;;;4.13;46.85;96783.25;6370998;27;19957;-64
2022/05/06 02:27:19;;;;;;;;;;;;;;;4.14;46.57;96784.97;6371839;27;19941;-64
2022/05/06 02:33:43;;;;;;;;;;;;;;;4.26;45.83;96794.88;6370897;27;19923;-65
2022/05/06 02:36:44;;;;;;;;;;;;;;;4.22;45.75;96814.16;6379099;27;19930;-64
2022/05/06 02:39:45;;;;;;;;;;;;;;;4.36;45.00;96804.03;6379111;27;19930;-64
2022/05/06 02:42:46;;;;;;;;;;;;;;;4.50;44.48;96825.16;6379354;27;19924;-64
2022/05/06 02:45:49;;;;;;;;;;;;;;;4.44;44.46;96825.38;6379995;27;19951;-64
2022/05/06 02:48:53;;;;;;;;;;;;;;;4.42;44.55;96832.44;6379449;27;19927;-63
2022/05/06 02:51:57;;;;;;;;;;;;;;;4.49;44.31;96833.84;6379760;27;19923;-64
2022/05/06 02:55:00;;;;;;;;;;;;;;;4.66;44.09;96842.72;6379884;27;19923;-63
2022/05/06 02:58:03;;;;;;;;;;;;;;;4.61;44.04;96836.84;6379232;27;20445;-63
2022/05/06 03:01:06;;;;;;;;;;;;;;;4.54;44.02;96856.28;6379720;27;19943;-64
2022/05/06 03:04:12;;;;;;;;;;;;;;;4.79;42.42;96849.13;6379670;27;19923;-64
2022/05/06 03:07:13;;;;;;;;;;;;;;;4.92;41.70;96863.31;6378763;27;19927;-64
2022/05/06 03:10:18;;;;;;;;;;;;;;;4.86;41.46;96858.38;6379679;27;19923;-64
2022/05/06 03:13:22;;;;;;;;;;;;;;;4.81;41.40;96859.47;6378918;27;19924;-64
2022/05/06 03:16:23;;;;;;;;;;;;;;;4.97;40.95;96863.13;6378948;27;19924;-64
2022/05/06 03:19:26;;;;;;;;;;;;;;;4.95;40.96;96881.47;6378391;27;19927;-63
2022/05/06 03:22:33;;;;;;;;;;;;;;;4.93;41.31;96885.91;6379549;27;20316;-64
2022/05/06 03:25:37;;;;;;;;;;;;;;;4.80;41.49;96889.91;6378592;27;19929;-64
2022/05/06 03:28:43;;;;;;;;;;;;;;;4.87;41.46;96880.94;6379458;27;19927;-63
2022/05/06 03:31:47;;;;;;;;;;;;;;;4.88;41.45;96887.84;6378693;27;19923;-64
2022/05/06 03:34:50;;;;;;;;;;;;;;;4.93;41.62;96896.31;6379032;27;19923;-64
2022/05/06 03:37:52;;;;;;;;;;;;;;;4.97;41.43;96885.78;6378244;27;20273;-64
2022/05/06 03:40:55;;;;;;;;;;;;;;;4.94;41.62;96902.38;6379037;27;19923;-65
2022/05/06 03:43:56;;;;;;;;;;;;;;;4.89;41.80;96899.13;6378503;27;20462;-62
2022/05/06 03:46:57;;;;;;;;;;;;;;;5.26;40.69;96894.94;6376011;27;19923;-66
2022/05/06 03:53:22;;;;;;;;;;;;;;;5.11;41.29;96909.50;6374239;27;20400;-64
2022/05/06 03:56:23;;;;;;;;;;;;;;;5.29;40.72;96911.31;6374348;27;19931;-65
2022/05/06 03:59:30;;;;;;;;;;;;;;;5.31;40.53;96917.31;6375271;27;20389;-64
2022/05/06 04:02:34;;;;;;;;;;;;;;;5.43;40.15;96930.75;6374433;27;19923;-63
2022/05/06 04:05:36;;;;;;;;;;;;;;;5.48;39.92;96940.06;6373939;27;20000;-64
2022/05/06 04:08:41;;;;;;;;;;;;;;;5.28;39.95;96929.66;6373903;27;19927;-64
2022/05/06 04:11:42;;;;;;;;;;;;;;;5.55;39.45;96933.69;6374925;27;19931;-64
2022/05/06 04:14:43;;;;;;;;;;;;;;;5.60;39.48;96938.69;6373291;27;19953;-64
2022/05/06 04:17:45;;;;;;;;;;;;;;;5.50;39.28;96943.47;6373870;27;19923;-65
2022/05/06 04:24:05;;;;;;;;;;;;;;;5.69;38.05;96953.97;6373903;27;19923;-63
2022/05/06 04:27:07;;;;;;;;;;;;;;;5.71;38.20;96957.31;6373312;27;20834;-64
2022/05/06 04:30:11;;;;;;;;;;;;;;;5.83;37.99;96962.03;6374436;27;19924;-64
2022/05/06 04:33:14;;;;;;;;;;;;;;;5.83;37.56;96956.81;6374154;27;19928;-64
2022/05/06 04:36:18;;;;;;;;;;;;;;;5.94;37.21;96979.00;6374088;27;20419;-63
2022/05/06 04:39:24;;;;;;;;;;;;;;;6.11;36.86;96975.63;6374097;27;20300;-64
2022/05/06 04:42:25;;;;;;;;;;;;;;;8.21;33.47;96967.81;6373445;27;19924;-64
2022/05/06 04:45:28;;;;;;;;;;;;;;;11.77;27.01;96985.69;6373954;27;20403;-64
2022/05/06 04:48:32;;;;;;;;;;;;;;;14.33;23.89;96993.53;6373124;27;19929;-64
2022/05/06 04:51:33;;;;;;;;;;;;;;;15.79;20.95;96987.06;6373651;27;19931;-65
2022/05/06 04:54:35;;;;;;;;;;;;;;;16.88;20.27;96983.84;6372274;27;19923;-64
2022/05/06 04:57:36;;;;;;;;;;;;;;;18.04;19.42;96992.91;6372175;27;19931;-65
2022/05/06 05:00:37;;;;;;;;;;;;;;;18.99;16.93;97008.69;6373479;27;20006;-64
2022/05/06 05:03:39;;;;;;;;;;;;;;;19.62;16.51;96997.19;6372725;27;19923;-65
2022/05/06 05:06:42;;;;;;;;;;;;;;;20.90;15.86;97011.81;6373358;27;19919;-64
2022/05/06 05:09:44;;;;;;;;;;;;;;;21.45;15.21;96997.94;6372657;27;19923;-64
2022/05/06 05:12:48;;;;;;;;;;;;;;;21.81;14.69;97019.09;6373381;27;19923;-65
2022/05/06 05:15:51;;;;;;;;;;;;;;;22.39;14.09;97012.75;6373345;27;20010;-64
2022/05/06 05:18:54;;;;;;;;;;;;;;;22.30;14.13;97024.47;6372171;27;19923;-64
2022/05/06 05:21:55;;;;;;;;;;;;;;;22.38;13.86;97040.53;6371830;27;19930;-65
2022/05/06 05:24:56;;;;;;;;;;;;;;;22.61;13.79;97054.06;6372178;27;19927;-63
2022/05/06 05:27:57;;;;;;;;;;;;;;;23.54;12.56;97039.16;6371674;27;20384;-65
2022/05/06 05:30:58;;;;;;;;;;;;;;;23.23;12.74;97074.88;6372154;27;19923;-64
2022/05/06 05:33:59;;;;;;;;;;;;;;;23.34;12.39;97075.53;6372291;27;19930;-64
2022/05/06 05:37:03;;;;;;;;;;;;;;;23.88;12.51;97089.03;6354695;27;20059;-66
2022/05/06 05:40:05;;;;;;;;;;;;;;;25.03;11.14;97091.59;6371699;27;19924;-64
2022/05/06 05:48:19;;;;;;;;;;;;;;;25.28;11.37;97102.97;6354409;27;19924;-64
2022/05/06 05:49:51;;;;;;;;;;;;;;;25.53;10.57;97112.41;6372184;27;19923;-65
2022/05/06 05:52:52;;;;;;;;;;;;;;;25.56;11.05;97115.72;6371219;27;19930;-64
2022/05/06 05:55:53;;;;;;;;;;;;;;;26.06;10.33;97123.00;6353766;27;20014;-64
2022/05/06 05:58:57;;;;;;;;;;;;;;;26.65;9.95;97138.13;6371953;27;19923;-64
2022/05/06 06:01:59;;;;;;;;;;;;;;;26.46;10.60;97149.53;6370629;27;19945;-64
2022/05/06 06:05:00;;;;;;;;;;;;;;;27.54;9.79;97153.72;6370859;27;19930;-64
2022/05/06 06:08:01;;;;;;;;;;;;;;;28.28;9.19;97160.28;6371014;27;19923;-65
2022/05/06 06:11:04;;;;;;;;;;;;;;;28.19;9.05;97146.09;6370287;27;19923;-64
2022/05/06 06:14:06;;;;;;;;;;;;;;;27.73;9.43;97142.16;6352398;27;19930;-65
2022/05/06 06:17:08;;;;;;;;;;;;;;;27.61;8.91;97160.00;6370886;27;19930;-64
2022/05/06 06:20:12;;;;;;;;;;;;;;;28.00;8.93;97169.38;6353689;27;20008;-63
2022/05/06 06:23:15;;;;;;;;;;;;;;;28.15;8.64;97161.09;6370278;27;20315;-64
2022/05/06 06:26:19;;;;;;;;;;;;;;;28.03;8.99;97166.25;6371451;27;20342;-64
2022/05/06 06:29:21;;;;;;;;;;;;;;;28.65;8.19;97154.34;6370963;27;20405;-64
2022/05/06 06:32:27;;;;;;;;;;;;;;;28.43;7.79;97174.50;6353319;28;19931;-65
2022/05/06 06:35:32;;;;;;;;;;;;;;;27.75;8.50;97187.94;6371381;28;19923;-64
2022/05/06 06:38:33;;;;;;;;;;;;;;;28.09;8.43;97176.25;6370716;28;20396;-64
2022/05/06 06:41:35;;;;;;;;;;;;;;;28.53;8.16;97169.50;6370555;28;19975;-64
2022/05/06 06:44:36;;;;;;;;;;;;;;;28.65;7.69;97184.13;6370592;28;19924;-64
2022/05/06 06:47:37;;;;;;;;;;;;;;;28.81;7.71;97182.88;6370868;28;19939;-64
2022/05/06 06:50:39;;;;;;;;;;;;;;;28.95;7.88;97210.81;6370205;28;19923;-64
2022/05/06 06:53:40;;;;;;;;;;;;;;;29.11;8.00;97197.94;6370314;28;19924;-64
2022/05/06 06:56:46;;;;;;;;;;;;;;;29.57;7.47;97203.28;6353394;28;19923;-64
2022/05/06 06:59:47;;;;;;;;;;;;;;;28.16;8.13;97196.03;6370328;28;20040;-70
2022/05/06 07:02:51;;;;;;;;;;;;;;;27.19;8.50;97205.06;6352539;28;19928;-65
2022/05/06 07:12:33;;;;;;;;;;;;;;;28.43;8.02;97223.22;6371205;28;19923;-64
2022/05/06 07:15:34;;;;;;;;;;;;;;;27.99;8.00;97211.78;6351913;28;19934;-65
2022/05/06 07:18:37;;;;;;;;;;;;;;;27.95;8.03;97225.94;6370969;28;19923;-64
2022/05/06 07:21:38;;;;;;;;;;;;;;;28.04;8.01;97219.31;6372859;27;20007;-64
2022/05/06 07:24:39;;;;;;;;;;;;;;;27.79;8.51;97215.41;6374850;27;19930;-65
2022/05/06 07:27:40;;;;;;;;;;;;;;;28.60;7.83;97213.69;6375001;27;19923;-64
2022/05/06 07:30:41;;;;;;;;;;;;;;;28.50;7.79;97224.06;6374860;27;20013;-64
2022/05/06 07:33:45;;;;;;;;;;;;;;;29.02;7.44;97214.38;6369632;27;19924;-66
2022/05/06 07:36:46;;;;;;;;;;;;;;;29.05;7.63;97216.69;6374475;27;20022;-63
2022/05/06 07:39:47;;;;;;;;;;;;;;;28.90;7.49;97229.53;6366730;27;19919;-65
2022/05/06 07:42:50;;;;;;;;;;;;;;;27.71;7.54;97230.78;6368810;27;19927;-65
2022/05/06 07:45:52;;;;;;;;;;;;;;;27.38;7.75;97238.66;6383462;27;20401;-62
2022/05/06 07:48:56;;;;;;;;;;;;;;;27.53;7.95;97233.16;6386161;27;20339;-63
2022/05/06 07:52:00;;;;;;;;;;;;;;;28.16;7.92;97228.50;6365792;27;19930;-63
2022/05/06 07:55:07;;;;;;;;;;;;;;;28.68;7.73;97241.59;6357305;27;19967;-63
2022/05/06 07:58:08;;;;;;;;;;;;;;;29.55;7.58;97237.91;6374075;27;19923;-62
2022/05/06 08:01:13;;;;;;;;;;;;;;;30.53;7.06;97245.97;6365752;27;20420;-62
2022/05/06 08:04:32;;;;;;;;;;;;;;;29.74;7.56;97228.94;6370427;27;19923;-63
2022/05/06 08:07:33;;;;;;;;;;;;;;;29.33;7.43;97248.16;6361816;27;19919;-63
2022/05/06 08:10:37;;;;;;;;;;;;;;;29.97;7.41;97249.31;6361279;27;19928;-62
2022/05/06 08:13:40;;;;;;;;;;;;;;;28.31;8.22;97250.03;6370719;27;19965;-62
2022/05/06 08:16:41;;;;;;;;;;;;;;;28.19;8.41;97249.78;6362954;27;19923;-62
2022/05/06 08:19:43;;;;;;;;;;;;;;;27.83;8.43;97259.97;6366480;27;19930;-65
2022/05/06 08:22:44;;;;;;;;;;;;;;;27.42;8.72;97263.41;6369972;27;20056;-62
2022/05/06 08:25:48;;;;;;;;;;;;;;;27.84;8.58;97267.06;6369629;27;19949;-63
2022/05/06 08:28:51;;;;;;;;;;;;;;;27.92;8.31;97270.44;6369994;27;19923;-67
2022/05/06 08:31:56;;;;;;;;;;;;;;;27.82;8.51;97271.81;6368876;27;19930;-63
2022/05/06 08:34:57;;;;;;;;;;;;;;;27.40;8.70;97292.50;6365871;27;19968;-62
2022/05/06 08:38:00;;;;;;;;;;;;;;;27.29;8.74;97283.09;6369096;27;19923;-62
2022/05/06 08:41:01;;;;;;;;;;;;;;;27.59;8.52;97297.22;6363493;27;19931;-63
2022/05/06 08:50:51;;;;;;;;;;;;;;;27.02;8.28;97301.69;6366159;27;19927;-64
2022/05/06 08:53:55;;;;;;;;;;;;;;;25.53;8.81;97295.63;6365905;27;19924;-61
2022/05/06 08:56:59;;;;;;;;;;;;;;;25.18;9.26;97301.66;6366304;27;19931;-62
2022/05/06 09:00:00;;;;;;;;;;;;;;;25.60;8.86;97311.06;6363447;27;19927;-62
2022/05/06 09:03:03;;;;;;;;;;;;;;;24.51;9.23;97327.31;6369249;27;19967;-62
2022/05/06 09:06:04;;;;;;;;;;;;;;;23.68;9.68;97323.19;6368034;27;19930;-62
2022/05/06 09:09:05;;;;;;;;;;;;;;;23.17;9.90;97330.59;6367594;27;19946;-63
2022/05/06 09:18:46;;;;;;;;;;;;;;;22.53;10.52;97335.69;6370322;27;19935;-62
2022/05/06 09:21:59;;;;;;;;;;;;;;;22.85;10.44;97340.28;6351921;27;20497;-62
2022/05/06 09:25:02;;;;;;;;;;;;;;;22.31;10.67;97329.06;6359644;27;19919;-63
2022/05/06 09:28:06;;;;;;;;;;;;;;;22.04;10.74;97340.81;6354556;27;19924;-63
2022/05/06 09:31:08;;;;;;;;;;;;;;;22.53;10.59;97345.56;6354696;27;20393;-61
2022/05/06 09:34:09;;;;;;;;;;;;;;;22.38;10.52;97351.53;6367902;27;19924;-63
2022/05/06 09:37:31;;;;;;;;;;;;;;;22.01;10.89;97346.50;6362008;27;19923;-63
2022/05/06 09:40:32;;;;;;;;;;;;;;;21.59;11.39;97352.59;6354016;27;19927;-63
2022/05/06 09:43:34;;;;;;;;;;;;;;;22.02;11.05;97352.69;6358169;27;19923;-62
2022/05/06 09:46:40;;;;;;;;;;;;;;;22.25;10.96;97353.84;6358069;27;19923;-63
2022/05/06 09:49:44;;;;;;;;;;;;;;;22.28;11.11;97358.91;6363541;27;19923;-62
2022/05/06 09:52:57;;;;;;;;;;;;;;;22.10;11.12;97368.81;6340893;27;20067;-61
2022/05/06 09:56:06;;;;;;;;;;;;;;;21.38;11.69;97377.03;6366756;27;19924;-66
2022/05/06 09:59:08;;;;;;;;;;;;;;;20.69;11.54;97366.97;6364455;27;19930;-62
2022/05/06 10:02:10;;;;;;;;;;;;;;;20.00;11.65;97363.78;6362762;27;19930;-61
2022/05/06 10:05:13;;;;;;;;;;;;;;;20.16;11.81;97382.72;6358771;27;19923;-62
2022/05/06 10:08:16;;;;;;;;;;;;;;;20.16;11.94;97380.03;6366235;27;19930;-61
2022/05/06 10:11:23;;;;;;;;;;;;;;;20.78;12.06;97374.13;6365534;27;20905;-62
2022/05/06 10:14:26;;;;;;;;;;;;;;;19.89;12.84;97390.69;6358021;27;20011;-61
2022/05/06 10:17:45;;;;;;;;;;;;;;;19.91;12.95;97386.88;6364007;27;19924;-62
2022/05/06 10:20:49;;;;;;;;;;;;;;;20.03;12.65;97381.34;6351693;27;19924;-62
2022/05/06 10:23:52;;;;;;;;;;;;;;;20.07;12.85;97388.94;6360555;27;19946;-62
2022/05/06 10:26:56;;;;;;;;;;;;;;;20.31;12.96;97403.59;6368337;27;19943;-61
2022/05/06 10:33:22;;;;;;;;;;;;;;;18.80;13.46;97406.88;6362842;27;19923;-62
2022/05/06 10:36:41;;;;;;;;;;;;;;;18.47;13.66;97393.84;6360276;28;19934;-61
2022/05/06 10:39:44;;;;;;;;;;;;;;;17.83;13.84;97409.13;6358542;28;20022;-63
2022/05/06 10:42:45;;;;;;;;;;;;;;;17.57;13.98;97414.00;6357356;27;19923;-62
2022/05/06 10:45:49;;;;;;;;;;;;;;;17.11;13.93;97419.66;6359120;28;19928;-61
2022/05/06 10:48:51;;;;;;;;;;;;;;;17.34;13.79;97426.56;6351378;28;19923;-61
2022/05/06 10:52:14;;;;;;;;;;;;;;;18.01;13.55;97420.03;6360643;28;19927;-61
2022/05/06 10:55:19;;;;;;;;;;;;;;;17.99;14.13;97431.78;6357844;27;19930;-61
2022/05/06 10:58:23;;;;;;;;;;;;;;;17.83;14.02;97422.44;6366095;27;19927;-61
2022/05/06 11:01:29;;;;;;;;;;;;;;;17.88;14.13;97427.38;6364680;27;19923;-62
2022/05/06 11:04:33;;;;;;;;;;;;;;;17.42;14.20;97434.75;6372390;27;19930;-61
2022/05/06 11:07:38;;;;;;;;;;;;;;;17.59;14.30;97433.34;6369617;27;19954;-62
2022/05/06 11:10:41;;;;;;;;;;;;;;;18.11;13.85;97436.06;6369831;27;20292;-63
2022/05/06 11:13:45;;;;;;;;;;;;;;;17.78;14.04;97440.66;6370689;27;19927;-61
2022/05/06 11:16:48;;;;;;;;;;;;;;;17.25;14.04;97453.94;6367606;27;19924;-61
2022/05/06 11:19:49;;;;;;;;;;;;;;;16.91;14.32;97451.38;6362921;27;19923;-61
2022/05/06 11:23:03;;;;;;;;;;;;;;;17.17;14.17;97456.38;6375302;27;19927;-61
2022/05/06 11:26:07;;;;;;;;;;;;;;;17.38;13.74;97465.25;6374635;27;19923;-62
2022/05/06 11:29:08;;;;;;;;;;;;;;;17.20;13.85;97456.13;6369027;27;19924;-62
2022/05/06 11:32:13;;;;;;;;;;;;;;;16.99;13.90;97467.56;6375330;27;19923;-62
2022/05/06 11:35:40;;;;;;;;;;;;;;;16.31;14.72;97457.97;6375211;27;19923;-61
2022/05/06 11:38:46;;;;;;;;;;;;;;;15.86;15.33;97463.22;6361889;27;20033;-61
2022/05/06 11:41:50;;;;;;;;;;;;;;;15.91;15.49;97471.69;6375886;27;19923;-62
2022/05/06 11:48:23;;;;;;;;;;;;;;;15.49;15.94;97463.34;6374471;27;19966;-62
2022/05/06 11:51:30;;;;;;;;;;;;;;;15.07;16.23;97472.69;6373992;27;20441;-62
2022/05/06 11:54:35;;;;;;;;;;;;;;;14.95;16.26;97474.44;6374663;27;19930;-63
2022/05/06 11:57:39;;;;;;;;;;;;;;;14.93;16.10;97494.88;6374818;27;19923;-61
2022/05/06 12:00:45;;;;;;;;;;;;;;;14.47;16.00;97476.97;6366800;27;19920;-62
2022/05/06 12:03:50;;;;;;;;;;;;;;;14.20;15.96;97496.47;6357369;27;19977;-61
2022/05/06 12:06:57;;;;;;;;;;;;;;;14.07;16.08;97498.28;6373829;27;19945;-62
2022/05/06 12:10:01;;;;;;;;;;;;;;;13.95;16.26;97491.19;6374194;27;20292;-61
2022/05/06 12:13:10;;;;;;;;;;;;;;;14.47;15.78;97488.41;6374149;27;19924;-61
2022/05/06 12:16:12;;;;;;;;;;;;;;;14.55;15.73;97490.53;6374020;27;19923;-61
2022/05/06 12:19:15;;;;;;;;;;;;;;;15.01;15.14;97492.53;6372959;27;20319;-61
2022/05/06 12:22:23;;;;;;;;;;;;;;;14.80;15.07;97498.44;6374316;27;19924;-62
2022/05/06 12:25:40;;;;;;;;;;;;;;;14.77;15.28;97488.03;6372902;27;19923;-62
2022/05/06 12:28:48;;;;;;;;;;;;;;;14.93;15.41;97493.06;6369482;27;20288;-62
2022/05/06 12:32:00;;;;;;;;;;;;;;;15.04;15.07;97502.91;6372903;27;20013;-61
2022/05/06 12:35:05;;;;;;;;;;;;;;;14.63;15.07;97496.13;6373306;27;19924;-61
2022/05/06 12:38:08;;;;;;;;;;;;;;;14.12;15.80;97490.84;6362826;27;19924;-63
2022/05/06 12:41:16;;;;;;;;;;;;;;;14.03;15.90;97504.72;6347943;28;19933;-62
2022/05/06 12:44:18;;;;;;;;;;;;;;;14.02;16.05;97519.78;6347259;28;20416;-62
2022/05/06 12:50:44;;;;;;;;;;;;;;;13.43;16.69;97509.63;6347105;28;19924;-62
2022/05/06 12:53:47;;;;;;;;;;;;;;;13.28;16.76;97518.56;6330011;27;20022;-63
2022/05/06 12:56:48;;;;;;;;;;;;;;;13.07;16.81;97514.63;6354130;27;19923;-62
2022/05/06 12:59:52;;;;;;;;;;;;;;;12.83;17.21;97520.56;6367180;27;19919;-62
2022/05/06 13:02:58;;;;;;;;;;;;;;;12.37;17.65;97526.06;6373067;27;19923;-62
2022/05/06 13:05:59;;;;;;;;;;;;;;;12.18;17.99;97514.94;6371546;27;20376;-63
2022/05/06 13:09:03;;;;;;;;;;;;;;;12.23;17.52;97533.97;6372864;27;19920;-63
2022/05/06 13:12:04;;;;;;;;;;;;;;;11.91;17.69;97523.56;6366367;27;19923;-62
2022/05/06 13:15:08;;;;;;;;;;;;;;;11.81;17.98;97528.53;6370624;27;19923;-62
2022/05/06 13:18:15;;;;;;;;;;;;;;;11.59;18.50;97523.66;6371128;27;20415;-62
2022/05/06 13:21:19;;;;;;;;;;;;;;;11.32;18.59;97519.97;6370404;27;19923;-63
2022/05/06 13:24:25;;;;;;;;;;;;;;;11.47;18.68;97524.38;6368902;27;19927;-64
2022/05/06 13:27:28;;;;;;;;;;;;;;;11.48;18.57;97519.97;6360853;27;20071;-65
2022/05/06 13:30:29;;;;;;;;;;;;;;;11.34;18.56;97533.94;6361892;27;19924;-65
2022/05/06 13:33:31;;;;;;;;;;;;;;;11.15;18.50;97529.72;6364138;27;20712;-66
2022/05/06 13:36:37;;;;;;;;;;;;;;;11.44;18.23;97535.09;6364122;27;19934;-62
2022/05/06 13:39:38;;;;;;;;;;;;;;;11.59;17.84;97539.47;6365214;27;19923;-63
2022/05/06 13:42:39;;;;;;;;;;;;;;;11.41;18.05;97540.56;6367485;27;19976;-70
2022/05/06 13:45:45;;;;;;;;;;;;;;;11.26;18.57;97538.78;6361833;27;19923;-68
2022/05/06 13:49:07;;;;;;;;;;;;;;;11.10;18.50;97552.84;6365110;27;20098;-68
2022/05/06 13:52:09;;;;;;;;;;;;;;;10.93;18.60;97548.50;6364783;27;19927;-68
2022/05/06 13:55:12;;;;;;;;;;;;;;;10.59;18.96;97557.41;6365756;27;19924;-68
2022/05/06 14:01:38;;;;;;;;;;;;;;;10.45;19.35;97565.19;6363871;27;19924;-66
2022/05/06 14:04:41;;;;;;;;;;;;;;;10.53;19.08;97568.22;6361642;27;19950;-67
2022/05/06 14:07:42;;;;;;;;;;;;;;;10.34;19.27;97555.22;6355697;27;19935;-66
2022/05/06 14:10:43;;;;;;;;;;;;;;;10.23;19.29;97571.53;6365067;27;20034;-64
2022/05/06 14:13:50;;;;;;;;;;;;;;;10.31;19.13;97569.38;6339519;27;19974;-65
2022/05/06 14:16:59;;;;;;;;;;;;;;;10.05;19.42;97567.25;6362333;27;20215;-62
2022/05/06 14:20:00;;;;;;;;;;;;;;;9.78;19.44;97567.72;6336919;27;19924;-61
2022/05/06 14:23:06;;;;;;;;;;;;;;;9.56;19.76;97572.34;6372013;27;19923;-63
2022/05/06 14:26:07;;;;;;;;;;;;;;;9.71;19.73;97579.47;6348486;27;19924;-62
2022/05/06 14:29:08;;;;;;;;;;;;;;;9.79;19.73;97582.53;6345181;28;19930;-62
2022/05/06 14:32:09;;;;;;;;;;;;;;;9.68;19.52;97584.84;6365926;27;19919;-62
2022/05/06 14:35:21;;;;;;;;;;;;;;;9.48;19.92;97592.88;6369063;27;19927;-63
2022/05/06 14:38:22;;;;;;;;;;;;;;;9.14;20.16;97590.13;6370857;28;20015;-63
2022/05/06 14:41:26;;;;;;;;;;;;;;;9.02;20.59;97595.09;6345431;28;20350;-61
2022/05/06 14:44:27;;;;;;;;;;;;;;;8.87;20.68;97602.75;6344911;28;19931;-62
2022/05/06 14:47:30;;;;;;;;;;;;;;;8.74;21.09;97609.50;6354700;28;19923;-64
2022/05/06 14:50:31;;;;;;;;;;;;;;;8.95;20.97;97610.28;6369742;28;19968;-63
2022/05/06 14:53:33;;;;;;;;;;;;;;;8.59;21.06;97618.06;6355917;27;20397;-64
2022/05/06 14:56:33;;;;;;;;;;;;;;;8.48;21.39;97615.91;6391490;27;19923;-64
2022/05/06 14:59:37;;;;;;;;;;;;;;;8.36;21.82;97614.66;6391673;27;19992;-64
2022/05/06 15:02:39;;;;;;;;;;;;;;;8.14;21.95;97616.50;6371780;27;19930;-63
2022/05/06 15:05:40;;;;;;;;;;;;;;;8.30;21.66;97622.81;6368124;28;19923;-63
2022/05/06 15:08:44;;;;;;;;;;;;;;;8.06;21.67;97628.16;6361701;28;20694;-63
2022/05/06 15:11:45;;;;;;;;;;;;;;;7.86;22.11;97638.66;6368832;27;19930;-66
2022/05/06 15:14:51;;;;;;;;;;;;;;;7.62;22.57;97645.75;6358976;28;19923;-63
2022/05/06 15:19:23;;;;;;;;;;;;;;;7.28;22.88;97646.25;6359412;28;19923;-63
2022/05/06 15:21:18;;;;;;;;;;;;;;;7.16;22.97;97658.91;6369834;28;19923;-63
2022/05/06 15:24:23;;;;;;;;;;;;;;;7.05;23.14;97655.84;6370292;28;20286;-63
2022/05/06 15:27:26;;;;;;;;;;;;;;;7.13;23.21;97653.81;6370838;28;20017;-63
2022/05/06 15:30:31;;;;;;;;;;;;;;;6.92;23.09;97672.91;6370638;28;20021;-64
2022/05/06 15:33:37;;;;;;;;;;;;;;;6.75;23.47;97677.00;6363931;28;19923;-62
2022/05/06 15:36:41;;;;;;;;;;;;;;;6.71;23.41;97685.88;6351638;28;19930;-64
2022/05/06 15:39:42;;;;;;;;;;;;;;;6.48;23.63;97683.22;6357002;28;19947;-63
2022/05/06 15:42:44;;;;;;;;;;;;;;;6.41;23.76;97689.59;6372263;27;19927;-63
2022/05/06 15:45:48;;;;;;;;;;;;;;;6.41;23.82;97694.81;6374750;27;19923;-63
2022/05/06 15:48:49;;;;;;;;;;;;;;;6.34;24.09;97698.53;6372859;27;20064;-63
2022/05/06 15:51:52;;;;;;;;;;;;;;;6.19;23.94;97706.00;6348948;28;19924;-64
2022/05/06 15:54:56;;;;;;;;;;;;;;;6.17;24.36;97717.41;6353593;27;19923;-64
2022/05/06 15:58:01;;;;;;;;;;;;;;;6.07;24.46;97720.34;6369591;27;19981;-63
2022/05/06 16:01:08;;;;;;;;;;;;;;;5.98;24.62;97720.66;6352667;27;19923;-63
2022/05/06 16:04:11;;;;;;;;;;;;;;;5.99;24.60;97718.88;6363332;27;19927;-63
2022/05/06 16:07:17;;;;;;;;;;;;;;;5.85;24.76;97737.59;6360293;27;20397;-63
2022/05/06 16:10:18;;;;;;;;;;;;;;;5.78;24.73;97747.38;6359574;27;19924;-63
2022/05/06 16:13:21;;;;;;;;;;;;;;;5.67;25.00;97754.69;6374565;27;19928;-63
2022/05/06 16:16:22;;;;;;;;;;;;;;;5.61;25.25;97755.75;6373591;27;19934;-63
2022/05/06 16:19:23;;;;;;;;;;;;;;;5.65;25.18;97753.88;6374079;27;19924;-65
2022/05/06 16:22:27;;;;;;;;;;;;;;;5.53;25.29;97760.34;6373694;27;20349;-64
2022/05/06 16:25:30;;;;;;;;;;;;;;;5.37;25.28;97770.38;6350005;27;19924;-63
2022/05/06 16:28:32;;;;;;;;;;;;;;;5.31;25.65;97767.94;6369225;27;19923;-63
2022/05/06 16:31:36;;;;;;;;;;;;;;;5.10;25.77;97779.88;6348765;27;19924;-63
2022/05/06 16:37:58;;;;;;;;;;;;;;;4.94;25.85;97792.47;6368346;27;20063;-65
2022/05/06 16:41:00;;;;;;;;;;;;;;;4.87;26.07;97793.56;6353429;27;19926;-63
2022/05/06 16:44:01;;;;;;;;;;;;;;;4.83;26.05;97798.91;6373293;27;19924;-64
2022/05/06 16:47:03;;;;;;;;;;;;;;;4.94;26.20;97804.69;6373428;27;19919;-64
2022/05/06 16:50:07;;;;;;;;;;;;;;;4.94;26.28;97815.09;6373689;27;19930;-64
2022/05/06 16:53:08;;;;;;;;;;;;;;;4.86;26.20;97812.69;6372267;27;19919;-64